Kerens, West Virginia
Current Conditions -  °F | °C
As of 10:51 AM on Wednesday 28 Jan 2015 (Local Time) from KEKN Reporting Station
Few Clouds Few Clouds  
Wind Chill: 20°   Ceiling: Unl
Heat Index: 20°   Visibility: 10mi
Dew Point: 12°   Wind: 3mph
Humidity: 71%   Direction: 220°SW
Pressure: 30.29"   Gusts: NA
Location:  39.01°N, 79.81°W
Report Text: KEKN 281551Z AUTO 22003KT 10SM FEW016 M07/M11 A3029 RMK AO2 SLP294 T10671111 TSNO
Loading
Personal Weather Stations






























Interactive Weather Map New forecast layout! Learn more

10-Day Weather Forecast

Advertisements
Track Severe Weather on mobile